sensor_id;sensor_type;location;lat;lon;timestamp;P1;P2;P0
77699;PMS5003;66867;42.658;23.320;2023-04-01T00:00:00;29;28;
77699;PMS5003;66867;42.658;23.320;2023-04-01T00:01:01;29;29;
77699;PMS5003;66867;42.658;23.320;2023-04-01T00:02:00;34;32;
77699;PMS5003;66867;42.658;23.320;2023-04-01T00:03:00;32;32;
77699;PMS5003;66867;42.658;23.320;2023-04-01T00:04:00;28;28;
77699;PMS5003;66867;42.658;23.320;2023-04-01T00:05:00;33;31;
77699;PMS5003;66867;42.658;23.320;2023-04-01T00:06:00;30;26;
77699;PMS5003;66867;42.658;23.320;2023-04-01T00:07:00;33;32;
77699;PMS5003;66867;42.658;23.320;2023-04-01T00:08:00;25;25;
77699;PMS5003;66867;42.658;23.320;2023-04-01T00:09:00;32;30;
77699;PMS5003;66867;42.658;23.320;2023-04-01T00:10:00;29;29;
77699;PMS5003;66867;42.658;23.320;2023-04-01T00:11:00;30;29;
77699;PMS5003;66867;42.658;23.320;2023-04-01T00:12:00;29;27;
77699;PMS5003;66867;42.658;23.320;2023-04-01T00:13:00;35;29;
77699;PMS5003;66867;42.658;23.320;2023-04-01T00:14:00;30;28;
77699;PMS5003;66867;42.658;23.320;2023-04-01T00:15:00;31;29;
77699;PMS5003;66867;42.658;23.320;2023-04-01T00:16:00;30;27;
77699;PMS5003;66867;42.658;23.320;2023-04-01T00:17:00;28;28;
77699;PMS5003;66867;42.658;23.320;2023-04-01T00:18:00;29;29;
77699;PMS5003;66867;42.658;23.320;2023-04-01T00:19:00;27;26;
77699;PMS5003;66867;42.658;23.320;2023-04-01T00:20:00;24;24;
77699;PMS5003;66867;42.658;23.320;2023-04-01T00:21:00;30;30;
77699;PMS5003;66867;42.658;23.320;2023-04-01T00:22:00;40;35;
77699;PMS5003;66867;42.658;23.320;2023-04-01T00:23:00;37;34;
77699;PMS5003;66867;42.658;23.320;2023-04-01T00:24:00;47;38;
77699;PMS5003;66867;42.658;23.320;2023-04-01T00:25:00;41;37;
77699;PMS5003;66867;42.658;23.320;2023-04-01T00:26:01;39;35;
77699;PMS5003;66867;42.658;23.320;2023-04-01T00:27:00;42;37;
77699;PMS5003;66867;42.658;23.320;2023-04-01T00:28:00;37;34;
77699;PMS5003;66867;42.658;23.320;2023-04-01T00:29:00;41;35;
77699;PMS5003;66867;42.658;23.320;2023-04-01T00:30:00;42;35;
77699;PMS5003;66867;42.658;23.320;2023-04-01T00:31:04;41;37;
77699;PMS5003;66867;42.658;23.320;2023-04-01T00:32:00;40;36;
77699;PMS5003;66867;42.658;23.320;2023-04-01T00:33:00;49;43;
77699;PMS5003;66867;42.658;23.320;2023-04-01T00:34:00;46;38;
77699;PMS5003;66867;42.658;23.320;2023-04-01T00:35:00;50;41;
77699;PMS5003;66867;42.658;23.320;2023-04-01T00:36:12;46;40;
77699;PMS5003;66867;42.658;23.320;2023-04-01T00:37:00;48;41;
77699;PMS5003;66867;42.658;23.320;2023-04-01T00:38:00;51;41;
77699;PMS5003;66867;42.658;23.320;2023-04-01T00:39:00;50;41;
77699;PMS5003;66867;42.658;23.320;2023-04-01T00:40:00;49;42;
77699;PMS5003;66867;42.658;23.320;2023-04-01T00:41:00;52;42;
77699;PMS5003;66867;42.658;23.320;2023-04-01T00:42:01;42;38;
77699;PMS5003;66867;42.658;23.320;2023-04-01T00:43:00;45;39;
77699;PMS5003;66867;42.658;23.320;2023-04-01T00:44:15;48;42;
77699;PMS5003;66867;42.658;23.320;2023-04-01T00:45:28;50;42;
77699;PMS5003;66867;42.658;23.320;2023-04-01T00:46:00;49;42;
77699;PMS5003;66867;42.658;23.320;2023-04-01T00:47:00;50;41;
77699;PMS5003;66867;42.658;23.320;2023-04-01T00:48:05;47;40;
77699;PMS5003;66867;42.658;23.320;2023-04-01T00:49:00;49;41;
77699;PMS5003;66867;42.658;23.320;2023-04-01T00:50:00;48;40;
77699;PMS5003;66867;42.658;23.320;2023-04-01T00:51:04;47;40;
77699;PMS5003;66867;42.658;23.320;2023-04-01T00:52:02;47;40;
77699;PMS5003;66867;42.658;23.320;2023-04-01T00:53:01;47;40;
77699;PMS5003;66867;42.658;23.320;2023-04-01T00:54:01;44;38;
77699;PMS5003;66867;42.658;23.320;2023-04-01T00:55:01;45;40;
77699;PMS5003;66867;42.658;23.320;2023-04-01T00:56:06;49;40;
77699;PMS5003;66867;42.658;23.320;2023-04-01T00:57:04;47;39;
77699;PMS5003;66867;42.658;23.320;2023-04-01T00:58:02;47;40;
77699;PMS5003;66867;42.658;23.320;2023-04-01T00:59:02;47;39;
77699;PMS5003;66867;42.658;23.320;2023-04-01T01:00:00;50;41;
77699;PMS5003;66867;42.658;23.320;2023-04-01T01:01:00;45;38;
77699;PMS5003;66867;42.658;23.320;2023-04-01T01:02:02;48;40;
77699;PMS5003;66867;42.658;23.320;2023-04-01T01:03:00;46;39;
77699;PMS5003;66867;42.658;23.320;2023-04-01T01:04:01;41;35;
77699;PMS5003;66867;42.658;23.320;2023-04-01T01:05:00;46;38;
77699;PMS5003;66867;42.658;23.320;2023-04-01T01:06:11;45;38;
77699;PMS5003;66867;42.658;23.320;2023-04-01T01:08:08;46;39;
77699;PMS5003;66867;42.658;23.320;2023-04-01T01:10:05;48;40;
77699;PMS5003;66867;42.658;23.320;2023-04-01T01:11:01;42;38;
77699;PMS5003;66867;42.658;23.320;2023-04-01T01:12:20;48;39;
77699;PMS5003;66867;42.658;23.320;2023-04-01T01:13:14;40;37;
77699;PMS5003;66867;42.658;23.320;2023-04-01T01:14:10;42;37;
77699;PMS5003;66867;42.658;23.320;2023-04-01T01:16:06;41;36;
77699;PMS5003;66867;42.658;23.320;2023-04-01T01:17:09;35;33;
77699;PMS5003;66867;42.658;23.320;2023-04-01T01:22:16;36;34;
77699;PMS5003;66867;42.658;23.320;2023-04-01T01:26:18;32;31;
77699;PMS5003;66867;42.658;23.320;2023-04-01T01:27:06;38;35;
77699;PMS5003;66867;42.658;23.320;2023-04-01T01:30:08;36;32;
77699;PMS5003;66867;42.658;23.320;2023-04-01T01:31:09;37;33;
77699;PMS5003;66867;42.658;23.320;2023-04-01T01:36:02;26;25;
77699;PMS5003;66867;42.658;23.320;2023-04-01T01:37:03;29;28;
77699;PMS5003;66867;42.658;23.320;2023-04-01T01:38:03;33;32;
77699;PMS5003;66867;42.658;23.320;2023-04-01T01:39:03;31;30;
77699;PMS5003;66867;42.658;23.320;2023-04-01T01:40:04;29;29;
77699;PMS5003;66867;42.658;23.320;2023-04-01T01:41:01;28;28;
77699;PMS5003;66867;42.658;23.320;2023-04-01T01:42:04;31;31;
77699;PMS5003;66867;42.658;23.320;2023-04-01T01:43:05;30;29;
77699;PMS5003;66867;42.658;23.320;2023-04-01T01:44:02;30;29;
77699;PMS5003;66867;42.658;23.320;2023-04-01T01:45:00;32;30;
77699;PMS5003;66867;42.658;23.320;2023-04-01T01:46:05;29;29;
77699;PMS5003;66867;42.658;23.320;2023-04-01T01:47:00;30;29;
77699;PMS5003;66867;42.658;23.320;2023-04-01T01:48:02;29;29;
77699;PMS5003;66867;42.658;23.320;2023-04-01T01:49:01;28;26;
77699;PMS5003;66867;42.658;23.320;2023-04-01T01:50:01;28;23;
77699;PMS5003;66867;42.658;23.320;2023-04-01T01:51:00;23;23;
77699;PMS5003;66867;42.658;23.320;2023-04-01T01:52:00;27;27;
77699;PMS5003;66867;42.658;23.320;2023-04-01T01:53:05;31;29;
77699;PMS5003;66867;42.658;23.320;2023-04-01T01:54:00;26;26;
77699;PMS5003;66867;42.658;23.320;2023-04-01T01:55:00;28;25;
77699;PMS5003;66867;42.658;23.320;2023-04-01T01:56:00;23;23;
77699;PMS5003;66867;42.658;23.320;2023-04-01T01:57:06;26;25;
77699;PMS5003;66867;42.658;23.320;2023-04-01T01:58:06;27;26;
77699;PMS5003;66867;42.658;23.320;2023-04-01T01:59:03;29;28;
77699;PMS5003;66867;42.658;23.320;2023-04-01T02:00:06;28;25;
77699;PMS5003;66867;42.658;23.320;2023-04-01T02:01:02;25;24;
77699;PMS5003;66867;42.658;23.320;2023-04-01T02:02:01;20;19;
77699;PMS5003;66867;42.658;23.320;2023-04-01T02:03:00;28;24;
77699;PMS5003;66867;42.658;23.320;2023-04-01T02:04:00;26;26;
77699;PMS5003;66867;42.658;23.320;2023-04-01T02:05:01;24;24;
77699;PMS5003;66867;42.658;23.320;2023-04-01T02:06:02;25;24;
77699;PMS5003;66867;42.658;23.320;2023-04-01T02:07:03;24;24;
77699;PMS5003;66867;42.658;23.320;2023-04-01T02:08:04;21;20;
77699;PMS5003;66867;42.658;23.320;2023-04-01T02:09:02;21;21;
77699;PMS5003;66867;42.658;23.320;2023-04-01T02:10:00;19;18;
77699;PMS5003;66867;42.658;23.320;2023-04-01T02:11:06;19;18;
77699;PMS5003;66867;42.658;23.320;2023-04-01T02:12:04;21;21;
77699;PMS5003;66867;42.658;23.320;2023-04-01T02:13:04;23;22;
77699;PMS5003;66867;42.658;23.320;2023-04-01T02:14:05;23;21;
77699;PMS5003;66867;42.658;23.320;2023-04-01T02:15:06;18;16;
77699;PMS5003;66867;42.658;23.320;2023-04-01T02:16:05;19;19;
77699;PMS5003;66867;42.658;23.320;2023-04-01T02:17:11;20;20;
77699;PMS5003;66867;42.658;23.320;2023-04-01T02:18:00;24;24;
77699;PMS5003;66867;42.658;23.320;2023-04-01T02:19:02;20;20;
77699;PMS5003;66867;42.658;23.320;2023-04-01T02:20:04;25;22;
77699;PMS5003;66867;42.658;23.320;2023-04-01T02:21:00;25;23;
77699;PMS5003;66867;42.658;23.320;2023-04-01T02:22:03;22;21;
77699;PMS5003;66867;42.658;23.320;2023-04-01T02:23:01;26;26;
77699;PMS5003;66867;42.658;23.320;2023-04-01T02:24:03;24;24;
77699;PMS5003;66867;42.658;23.320;2023-04-01T02:25:04;30;27;
77699;PMS5003;66867;42.658;23.320;2023-04-01T02:26:01;22;22;
77699;PMS5003;66867;42.658;23.320;2023-04-01T02:27:00;24;23;
77699;PMS5003;66867;42.658;23.320;2023-04-01T02:28:02;26;25;
77699;PMS5003;66867;42.658;23.320;2023-04-01T02:29:00;23;23;
77699;PMS5003;66867;42.658;23.320;2023-04-01T02:30:00;30;29;
77699;PMS5003;66867;42.658;23.320;2023-04-01T02:31:00;26;25;
77699;PMS5003;66867;42.658;23.320;2023-04-01T02:32:00;26;26;
77699;PMS5003;66867;42.658;23.320;2023-04-01T02:33:01;23;23;
77699;PMS5003;66867;42.658;23.320;2023-04-01T02:34:01;23;23;
77699;PMS5003;66867;42.658;23.320;2023-04-01T02:35:00;26;25;
77699;PMS5003;66867;42.658;23.320;2023-04-01T02:36:00;24;23;
77699;PMS5003;66867;42.658;23.320;2023-04-01T02:37:00;26;25;
77699;PMS5003;66867;42.658;23.320;2023-04-01T02:38:00;21;21;
77699;PMS5003;66867;42.658;23.320;2023-04-01T02:39:00;24;24;
77699;PMS5003;66867;42.658;23.320;2023-04-01T02:40:02;22;22;
77699;PMS5003;66867;42.658;23.320;2023-04-01T02:41:00;23;22;
77699;PMS5003;66867;42.658;23.320;2023-04-01T02:42:00;19;19;
77699;PMS5003;66867;42.658;23.320;2023-04-01T02:43:00;23;22;
77699;PMS5003;66867;42.658;23.320;2023-04-01T02:44:00;22;22;
77699;PMS5003;66867;42.658;23.320;2023-04-01T02:45:01;22;22;
77699;PMS5003;66867;42.658;23.320;2023-04-01T02:46:00;20;19;
77699;PMS5003;66867;42.658;23.320;2023-04-01T02:47:00;21;20;
77699;PMS5003;66867;42.658;23.320;2023-04-01T02:48:00;20;18;
77699;PMS5003;66867;42.658;23.320;2023-04-01T02:49:00;19;18;
77699;PMS5003;66867;42.658;23.320;2023-04-01T02:50:00;20;20;
77699;PMS5003;66867;42.658;23.320;2023-04-01T02:51:00;20;19;
77699;PMS5003;66867;42.658;23.320;2023-04-01T02:52:00;23;23;
77699;PMS5003;66867;42.658;23.320;2023-04-01T02:53:01;24;21;
77699;PMS5003;66867;42.658;23.320;2023-04-01T02:54:01;18;18;
77699;PMS5003;66867;42.658;23.320;2023-04-01T02:55:00;25;24;
77699;PMS5003;66867;42.658;23.320;2023-04-01T02:56:00;20;19;
77699;PMS5003;66867;42.658;23.320;2023-04-01T02:57:00;22;22;
77699;PMS5003;66867;42.658;23.320;2023-04-01T02:58:01;21;21;
77699;PMS5003;66867;42.658;23.320;2023-04-01T02:59:00;21;21;
77699;PMS5003;66867;42.658;23.320;2023-04-01T03:00:00;20;19;
77699;PMS5003;66867;42.658;23.320;2023-04-01T03:01:00;25;25;
77699;PMS5003;66867;42.658;23.320;2023-04-01T03:02:00;21;21;
77699;PMS5003;66867;42.658;23.320;2023-04-01T03:03:00;24;21;
77699;PMS5003;66867;42.658;23.320;2023-04-01T03:04:00;22;21;
77699;PMS5003;66867;42.658;23.320;2023-04-01T03:05:00;25;23;
77699;PMS5003;66867;42.658;23.320;2023-04-01T03:06:09;20;20;
77699;PMS5003;66867;42.658;23.320;2023-04-01T03:07:00;21;20;
77699;PMS5003;66867;42.658;23.320;2023-04-01T03:08:00;22;21;
77699;PMS5003;66867;42.658;23.320;2023-04-01T03:09:00;28;25;
77699;PMS5003;66867;42.658;23.320;2023-04-01T03:10:00;24;23;
77699;PMS5003;66867;42.658;23.320;2023-04-01T03:11:00;25;23;
77699;PMS5003;66867;42.658;23.320;2023-04-01T03:12:00;24;23;
77699;PMS5003;66867;42.658;23.320;2023-04-01T03:13:00;21;20;
77699;PMS5003;66867;42.658;23.320;2023-04-01T03:14:00;23;23;
77699;PMS5003;66867;42.658;23.320;2023-04-01T03:15:00;25;25;
77699;PMS5003;66867;42.658;23.320;2023-04-01T03:16:00;21;21;
77699;PMS5003;66867;42.658;23.320;2023-04-01T03:17:00;24;23;
77699;PMS5003;66867;42.658;23.320;2023-04-01T03:18:00;23;22;
77699;PMS5003;66867;42.658;23.320;2023-04-01T03:19:00;25;24;
77699;PMS5003;66867;42.658;23.320;2023-04-01T03:20:00;20;20;
77699;PMS5003;66867;42.658;23.320;2023-04-01T03:21:12;25;24;
77699;PMS5003;66867;42.658;23.320;2023-04-01T03:22:00;29;26;
77699;PMS5003;66867;42.658;23.320;2023-04-01T03:23:00;27;26;
77699;PMS5003;66867;42.658;23.320;2023-04-01T03:24:00;25;22;
77699;PMS5003;66867;42.658;23.320;2023-04-01T03:25:01;19;19;
77699;PMS5003;66867;42.658;23.320;2023-04-01T03:26:00;25;23;
77699;PMS5003;66867;42.658;23.320;2023-04-01T03:27:00;25;25;
77699;PMS5003;66867;42.658;23.320;2023-04-01T03:28:00;23;23;
77699;PMS5003;66867;42.658;23.320;2023-04-01T03:29:00;23;23;
77699;PMS5003;66867;42.658;23.320;2023-04-01T03:30:01;26;25;
77699;PMS5003;66867;42.658;23.320;2023-04-01T03:31:00;27;27;
77699;PMS5003;66867;42.658;23.320;2023-04-01T03:32:00;28;26;
77699;PMS5003;66867;42.658;23.320;2023-04-01T03:33:00;27;25;
77699;PMS5003;66867;42.658;23.320;2023-04-01T03:34:00;36;33;
77699;PMS5003;66867;42.658;23.320;2023-04-01T03:35:00;35;32;
77699;PMS5003;66867;42.658;23.320;2023-04-01T03:36:00;39;34;
77699;PMS5003;66867;42.658;23.320;2023-04-01T03:37:00;32;31;
77699;PMS5003;66867;42.658;23.320;2023-04-01T03:38:00;38;35;
77699;PMS5003;66867;42.658;23.320;2023-04-01T03:39:00;33;32;
77699;PMS5003;66867;42.658;23.320;2023-04-01T03:40:00;37;33;
77699;PMS5003;66867;42.658;23.320;2023-04-01T03:41:00;33;32;
77699;PMS5003;66867;42.658;23.320;2023-04-01T03:42:00;36;34;
77699;PMS5003;66867;42.658;23.320;2023-04-01T03:43:00;38;35;
77699;PMS5003;66867;42.658;23.320;2023-04-01T03:44:00;38;34;
77699;PMS5003;66867;42.658;23.320;2023-04-01T03:45:00;42;37;
77699;PMS5003;66867;42.658;23.320;2023-04-01T03:46:00;46;38;
77699;PMS5003;66867;42.658;23.320;2023-04-01T03:47:00;44;38;
77699;PMS5003;66867;42.658;23.320;2023-04-01T03:48:00;48;39;
77699;PMS5003;66867;42.658;23.320;2023-04-01T03:49:00;48;40;
77699;PMS5003;66867;42.658;23.320;2023-04-01T03:50:00;48;40;
77699;PMS5003;66867;42.658;23.320;2023-04-01T03:51:00;47;39;
77699;PMS5003;66867;42.658;23.320;2023-04-01T03:52:00;47;40;
77699;PMS5003;66867;42.658;23.320;2023-04-01T03:53:00;44;38;
77699;PMS5003;66867;42.658;23.320;2023-04-01T03:54:00;40;36;
77699;PMS5003;66867;42.658;23.320;2023-04-01T03:55:01;39;36;
77699;PMS5003;66867;42.658;23.320;2023-04-01T03:56:03;33;32;
77699;PMS5003;66867;42.658;23.320;2023-04-01T03:57:00;32;29;
77699;PMS5003;66867;42.658;23.320;2023-04-01T03:58:00;31;30;
77699;PMS5003;66867;42.658;23.320;2023-04-01T03:59:04;33;32;
77699;PMS5003;66867;42.658;23.320;2023-04-01T04:00:00;32;32;
77699;PMS5003;66867;42.658;23.320;2023-04-01T04:01:00;29;29;
77699;PMS5003;66867;42.658;23.320;2023-04-01T04:02:00;28;26;
77699;PMS5003;66867;42.658;23.320;2023-04-01T04:03:00;29;29;
77699;PMS5003;66867;42.658;23.320;2023-04-01T04:04:00;27;26;
77699;PMS5003;66867;42.658;23.320;2023-04-01T04:05:00;29;28;
77699;PMS5003;66867;42.658;23.320;2023-04-01T04:06:00;25;23;
77699;PMS5003;66867;42.658;23.320;2023-04-01T04:07:00;28;28;
77699;PMS5003;66867;42.658;23.320;2023-04-01T04:08:00;31;29;
77699;PMS5003;66867;42.658;23.320;2023-04-01T04:09:00;25;24;
77699;PMS5003;66867;42.658;23.320;2023-04-01T04:10:00;26;26;
77699;PMS5003;66867;42.658;23.320;2023-04-01T04:11:00;25;24;
77699;PMS5003;66867;42.658;23.320;2023-04-01T04:12:01;29;28;
77699;PMS5003;66867;42.658;23.320;2023-04-01T04:13:00;32;30;
77699;PMS5003;66867;42.658;23.320;2023-04-01T04:14:00;32;30;
77699;PMS5003;66867;42.658;23.320;2023-04-01T04:15:00;31;30;
77699;PMS5003;66867;42.658;23.320;2023-04-01T04:16:00;30;28;
77699;PMS5003;66867;42.658;23.320;2023-04-01T04:17:00;28;26;
77699;PMS5003;66867;42.658;23.320;2023-04-01T04:18:00;28;28;
77699;PMS5003;66867;42.658;23.320;2023-04-01T04:19:00;26;24;
77699;PMS5003;66867;42.658;23.320;2023-04-01T04:20:00;26;25;
77699;PMS5003;66867;42.658;23.320;2023-04-01T04:21:00;30;28;
77699;PMS5003;66867;42.658;23.320;2023-04-01T04:22:00;26;26;
77699;PMS5003;66867;42.658;23.320;2023-04-01T04:23:00;30;29;
77699;PMS5003;66867;42.658;23.320;2023-04-01T04:24:00;26;26;
77699;PMS5003;66867;42.658;23.320;2023-04-01T04:25:00;29;29;
77699;PMS5003;66867;42.658;23.320;2023-04-01T04:26:03;34;32;
77699;PMS5003;66867;42.658;23.320;2023-04-01T04:27:00;33;31;
77699;PMS5003;66867;42.658;23.320;2023-04-01T04:28:00;29;29;
77699;PMS5003;66867;42.658;23.320;2023-04-01T04:29:00;30;29;
77699;PMS5003;66867;42.658;23.320;2023-04-01T04:30:00;32;29;
77699;PMS5003;66867;42.658;23.320;2023-04-01T04:31:01;34;31;
77699;PMS5003;66867;42.658;23.320;2023-04-01T04:32:00;29;28;
77699;PMS5003;66867;42.658;23.320;2023-04-01T04:33:00;33;32;
77699;PMS5003;66867;42.658;23.320;2023-04-01T04:34:00;33;32;
77699;PMS5003;66867;42.658;23.320;2023-04-01T04:35:00;28;28;
77699;PMS5003;66867;42.658;23.320;2023-04-01T04:36:01;32;31;
77699;PMS5003;66867;42.658;23.320;2023-04-01T04:37:00;32;32;
77699;PMS5003;66867;42.658;23.320;2023-04-01T04:38:00;34;33;
77699;PMS5003;66867;42.658;23.320;2023-04-01T04:39:00;35;32;
77699;PMS5003;66867;42.658;23.320;2023-04-01T04:40:00;32;30;
77699;PMS5003;66867;42.658;23.320;2023-04-01T04:41:00;30;30;
77699;PMS5003;66867;42.658;23.320;2023-04-01T04:42:00;34;31;
77699;PMS5003;66867;42.658;23.320;2023-04-01T04:43:00;28;26;
77699;PMS5003;66867;42.658;23.320;2023-04-01T04:44:00;34;31;
77699;PMS5003;66867;42.658;23.320;2023-04-01T04:45:00;33;32;
77699;PMS5003;66867;42.658;23.320;2023-04-01T04:46:03;37;34;
77699;PMS5003;66867;42.658;23.320;2023-04-01T04:47:01;41;35;
77699;PMS5003;66867;42.658;23.320;2023-04-01T04:48:00;33;32;
77699;PMS5003;66867;42.658;23.320;2023-04-01T04:49:00;35;33;
77699;PMS5003;66867;42.658;23.320;2023-04-01T04:50:00;31;31;
77699;PMS5003;66867;42.658;23.320;2023-04-01T04:51:00;32;31;
77699;PMS5003;66867;42.658;23.320;2023-04-01T04:52:00;36;34;
77699;PMS5003;66867;42.658;23.320;2023-04-01T04:53:00;35;33;
77699;PMS5003;66867;42.658;23.320;2023-04-01T04:54:00;40;35;
77699;PMS5003;66867;42.658;23.320;2023-04-01T04:55:00;33;31;
77699;PMS5003;66867;42.658;23.320;2023-04-01T04:56:00;32;30;
77699;PMS5003;66867;42.658;23.320;2023-04-01T04:57:00;33;32;
77699;PMS5003;66867;42.658;23.320;2023-04-01T04:58:00;32;32;
77699;PMS5003;66867;42.658;23.320;2023-04-01T04:59:00;32;31;
77699;PMS5003;66867;42.658;23.320;2023-04-01T05:00:00;32;32;
77699;PMS5003;66867;42.658;23.320;2023-04-01T05:01:10;31;31;
77699;PMS5003;66867;42.658;23.320;2023-04-01T05:02:00;34;32;
77699;PMS5003;66867;42.658;23.320;2023-04-01T05:03:00;29;29;
77699;PMS5003;66867;42.658;23.320;2023-04-01T05:04:00;32;31;
77699;PMS5003;66867;42.658;23.320;2023-04-01T05:05:00;33;32;
77699;PMS5003;66867;42.658;23.320;2023-04-01T05:06:00;35;33;
77699;PMS5003;66867;42.658;23.320;2023-04-01T05:07:00;34;32;
77699;PMS5003;66867;42.658;23.320;2023-04-01T05:08:01;36;33;
77699;PMS5003;66867;42.658;23.320;2023-04-01T05:09:00;30;30;
77699;PMS5003;66867;42.658;23.320;2023-04-01T05:10:00;34;32;
77699;PMS5003;66867;42.658;23.320;2023-04-01T05:11:01;30;28;
77699;PMS5003;66867;42.658;23.320;2023-04-01T05:12:00;30;29;
77699;PMS5003;66867;42.658;23.320;2023-04-01T05:13:00;34;32;
77699;PMS5003;66867;42.658;23.320;2023-04-01T05:14:00;35;32;
77699;PMS5003;66867;42.658;23.320;2023-04-01T05:15:00;32;31;
77699;PMS5003;66867;42.658;23.320;2023-04-01T05:16:00;32;31;
77699;PMS5003;66867;42.658;23.320;2023-04-01T05:17:00;35;32;
77699;PMS5003;66867;42.658;23.320;2023-04-01T05:18:00;31;30;
77699;PMS5003;66867;42.658;23.320;2023-04-01T05:19:00;36;32;
77699;PMS5003;66867;42.658;23.320;2023-04-01T05:20:00;34;32;
77699;PMS5003;66867;42.658;23.320;2023-04-01T05:21:00;34;32;
77699;PMS5003;66867;42.658;23.320;2023-04-01T05:22:00;33;32;
77699;PMS5003;66867;42.658;23.320;2023-04-01T05:23:00;31;31;
77699;PMS5003;66867;42.658;23.320;2023-04-01T05:24:00;32;31;
77699;PMS5003;66867;42.658;23.320;2023-04-01T05:25:00;33;32;
77699;PMS5003;66867;42.658;23.320;2023-04-01T05:26:05;34;32;
77699;PMS5003;66867;42.658;23.320;2023-04-01T05:27:00;36;33;
77699;PMS5003;66867;42.658;23.320;2023-04-01T05:28:00;35;32;
77699;PMS5003;66867;42.658;23.320;2023-04-01T05:29:00;34;32;
77699;PMS5003;66867;42.658;23.320;2023-04-01T05:30:00;28;28;
77699;PMS5003;66867;42.658;23.320;2023-04-01T05:31:01;36;33;
77699;PMS5003;66867;42.658;23.320;2023-04-01T05:32:00;32;32;
77699;PMS5003;66867;42.658;23.320;2023-04-01T05:33:00;35;33;
77699;PMS5003;66867;42.658;23.320;2023-04-01T05:34:00;35;33;
77699;PMS5003;66867;42.658;23.320;2023-04-01T05:35:00;33;32;
77699;PMS5003;66867;42.658;23.320;2023-04-01T05:36:12;46;37;
77699;PMS5003;66867;42.658;23.320;2023-04-01T05:37:00;37;34;
77699;PMS5003;66867;42.658;23.320;2023-04-01T05:38:00;33;32;
77699;PMS5003;66867;42.658;23.320;2023-04-01T05:39:00;35;34;
77699;PMS5003;66867;42.658;23.320;2023-04-01T05:40:00;35;33;
77699;PMS5003;66867;42.658;23.320;2023-04-01T05:41:01;35;32;
77699;PMS5003;66867;42.658;23.320;2023-04-01T05:42:00;34;33;
77699;PMS5003;66867;42.658;23.320;2023-04-01T05:43:00;32;32;
77699;PMS5003;66867;42.658;23.320;2023-04-01T05:44:00;34;32;
77699;PMS5003;66867;42.658;23.320;2023-04-01T05:45:00;39;35;
77699;PMS5003;66867;42.658;23.320;2023-04-01T05:46:00;44;38;
77699;PMS5003;66867;42.658;23.320;2023-04-01T05:47:01;36;34;
77699;PMS5003;66867;42.658;23.320;2023-04-01T05:48:00;40;35;
77699;PMS5003;66867;42.658;23.320;2023-04-01T05:49:00;34;33;
77699;PMS5003;66867;42.658;23.320;2023-04-01T05:50:00;30;30;
77699;PMS5003;66867;42.658;23.320;2023-04-01T05:51:00;35;33;
77699;PMS5003;66867;42.658;23.320;2023-04-01T05:52:00;33;31;
77699;PMS5003;66867;42.658;23.320;2023-04-01T05:53:00;32;31;
77699;PMS5003;66867;42.658;23.320;2023-04-01T05:54:00;36;31;
77699;PMS5003;66867;42.658;23.320;2023-04-01T05:55:00;45;38;
77699;PMS5003;66867;42.658;23.320;2023-04-01T05:56:03;31;30;
77699;PMS5003;66867;42.658;23.320;2023-04-01T05:57:00;29;29;
77699;PMS5003;66867;42.658;23.320;2023-04-01T05:58:00;26;23;
77699;PMS5003;66867;42.658;23.320;2023-04-01T05:59:00;28;26;
77699;PMS5003;66867;42.658;23.320;2023-04-01T06:00:00;27;26;
77699;PMS5003;66867;42.658;23.320;2023-04-01T06:01:03;25;24;
77699;PMS5003;66867;42.658;23.320;2023-04-01T06:02:00;27;24;
77699;PMS5003;66867;42.658;23.320;2023-04-01T06:03:00;27;25;
77699;PMS5003;66867;42.658;23.320;2023-04-01T06:04:00;23;23;
77699;PMS5003;66867;42.658;23.320;2023-04-01T06:05:11;21;21;
77699;PMS5003;66867;42.658;23.320;2023-04-01T06:06:00;25;24;
77699;PMS5003;66867;42.658;23.320;2023-04-01T06:07:00;24;23;
77699;PMS5003;66867;42.658;23.320;2023-04-01T06:08:08;20;20;
77699;PMS5003;66867;42.658;23.320;2023-04-01T06:09:12;26;21;
77699;PMS5003;66867;42.658;23.320;2023-04-01T06:10:00;24;21;
77699;PMS5003;66867;42.658;23.320;2023-04-01T06:13:06;19;19;
77699;PMS5003;66867;42.658;23.320;2023-04-01T06:14:11;20;17;
77699;PMS5003;66867;42.658;23.320;2023-04-01T06:16:15;18;17;
77699;PMS5003;66867;42.658;23.320;2023-04-01T06:22:08;18;17;
77699;PMS5003;66867;42.658;23.320;2023-04-01T06:28:07;16;16;
77699;PMS5003;66867;42.658;23.320;2023-04-01T06:29:12;17;17;
77699;PMS5003;66867;42.658;23.320;2023-04-01T06:35:07;15;15;
77699;PMS5003;66867;42.658;23.320;2023-04-01T06:36:10;14;13;
77699;PMS5003;66867;42.658;23.320;2023-04-01T06:37:08;17;17;
77699;PMS5003;66867;42.658;23.320;2023-04-01T06:38:05;16;16;
77699;PMS5003;66867;42.658;23.320;2023-04-01T06:41:08;12;12;
77699;PMS5003;66867;42.658;23.320;2023-04-01T06:43:05;18;15;
77699;PMS5003;66867;42.658;23.320;2023-04-01T06:45:09;17;17;
77699;PMS5003;66867;42.658;23.320;2023-04-01T06:46:17;20;18;
77699;PMS5003;66867;42.658;23.320;2023-04-01T06:47:10;17;17;
77699;PMS5003;66867;42.658;23.320;2023-04-01T06:55:27;19;19;
77699;PMS5003;66867;42.658;23.320;2023-04-01T06:56:06;24;22;
77699;PMS5003;66867;42.658;23.320;2023-04-01T06:57:05;23;23;
77699;PMS5003;66867;42.658;23.320;2023-04-01T06:58:03;20;20;
77699;PMS5003;66867;42.658;23.320;2023-04-01T06:59:04;21;20;
77699;PMS5003;66867;42.658;23.320;2023-04-01T07:00:04;24;23;
77699;PMS5003;66867;42.658;23.320;2023-04-01T07:01:03;23;22;
77699;PMS5003;66867;42.658;23.320;2023-04-01T07:02:09;22;21;
77699;PMS5003;66867;42.658;23.320;2023-04-01T07:04:05;20;20;
77699;PMS5003;66867;42.658;23.320;2023-04-01T07:05:01;26;22;
77699;PMS5003;66867;42.658;23.320;2023-04-01T07:06:04;19;19;
77699;PMS5003;66867;42.658;23.320;2023-04-01T07:07:04;23;22;
77699;PMS5003;66867;42.658;23.320;2023-04-01T07:08:02;25;24;
77699;PMS5003;66867;42.658;23.320;2023-04-01T07:09:05;22;22;
77699;PMS5003;66867;42.658;23.320;2023-04-01T07:10:04;22;21;
77699;PMS5003;66867;42.658;23.320;2023-04-01T07:11:03;26;25;
77699;PMS5003;66867;42.658;23.320;2023-04-01T07:12:04;24;22;
77699;PMS5003;66867;42.658;23.320;2023-04-01T07:13:04;26;25;
77699;PMS5003;66867;42.658;23.320;2023-04-01T07:14:02;19;19;
77699;PMS5003;66867;42.658;23.320;2023-04-01T07:15:05;24;23;
77699;PMS5003;66867;42.658;23.320;2023-04-01T07:16:07;22;21;
77699;PMS5003;66867;42.658;23.320;2023-04-01T07:17:06;20;19;